Mc Guire Air Force Base
KWRI : now visible

Aeroporto :











RITROVATECI SU...

 
LOGIN :

Iscrizione | Disclaimer

   EN    FR    IT 

 









Sommario :    VFR   VFR Marginale   IFR   IFR Intensivo   IFR Molto Intensivo
Visibilità : 
Base nubi : 
>= 8 km
>= 3000ft
5 / 8 km
1000 / 3000 ft
1500m / 5 km
500 / 1000 ft
800 / 1500m
200 / 500 ft
< 800m
< 200 ft
Simboli :   Temporali  Nebbia  Neve Forte  Precipitazioni Forti  Vento > 20 kt






- Altitudine del aeroporto : 131 ft
- Codice IATA : WRI


KWRI - Mc Guire Air Force Base

ULTIMO METAR :
  • 051156Z AUTO 30006KT 10SM CLR 24/20 A3000 RMK AO2 SLP158 70086 T02410198 10241 20202 52020 $

METARs OBSOLETI :
  • 051056Z AUTO 27004KT 10SM CLR 22/20 A2999 RMK AO2 SLP154 T02180201 $
  • 050956Z AUTO 23004KT 10SM CLR 20/20 A2997 RMK AO2 SLP148 T02030196 $

TAF TAF KWRI
Valido dal 05 a 10 ore il 06 a 16 ore UTC


051000Z 0510/0616 27006KT 9999 FEW090 SCT250 QNH2996INS
BECMG 0517/0518 25010KT 9999 SCT050 SCT250 QNH3001INS
BECMG 0600/0601 VRB05KT 9999 SCT035 BKN250 QNH3005INS
BECMG 0611/0612 02009KT 9000 -SHRA BKN035 OVC250 QNH3012INS TX31/0520Z TN19/0610Z
FIR KZNY / America del Nord



MetMap, La meteo Aeronautica in un colpo d'occhio ! - Copyright ORBIFLY Dicembre 2007 - Disclaimer

ORBIFLY MET'MAP TEAM :

Programmazione e sviluppo : Alexandra Zaïnal
Concezione : Baudouin d'Aumeries
Aiuto per la programmazione : Marc-Olivier Méhu
Supporto tecnico e logistico : Manuel Goepfert
Aiuto per la traduzione : Arnaldo La Scala

Contatto : metmap@orbifly.com




FONTI E CREDITI :

   NOAA       Earth
Advisory